Terminal Aerodrome Forecast
Issued by NWS Twin Cities, MN

Home | Current Version | Previous Version | Text Only | Print | Product List | Glossary Off
Versions: 1 2 3 4 5 6 7 8 9 10 11 12 13 14 15 16 17 18 19

000
FTUS43 KMPX 272300
TAFEAU
TAF
KEAU 272338Z 2800/2824 17009KT P6SM SCT060 SCT250
     FM280200 VRB03KT P6SM SCT050
      TEMPO 2809/2813 2SM BR SCT002
     FM281500 21005KT P6SM FEW050 SCT250=

USA.gov is the U.S. government's official web portal to all federal, state and local government web resources and services.